createdAt,value
2023-01-12T00:03:10.271Z,100367.94
2023-01-12T00:08:11.581Z,100351.44
2023-01-12T00:13:12.894Z,100349.44
2023-01-12T00:18:14.267Z,100346.56
2023-01-12T00:23:15.652Z,100347.72
2023-01-12T00:28:16.993Z,100343.69
2023-01-12T00:33:19.999Z,100340.66
2023-01-12T00:38:21.520Z,100340.00
2023-01-12T00:43:41.427Z,100345.00
2023-01-12T00:48:42.795Z,100330.56
2023-01-12T00:53:44.133Z,100329.72
2023-01-12T00:58:45.432Z,100328.72
2023-01-12T01:03:46.728Z,100326.53
2023-01-12T01:08:48.533Z,100328.56
2023-01-12T01:13:50.066Z,100332.56
2023-01-12T01:18:51.809Z,100334.41
2023-01-12T01:23:53.506Z,100321.81
2023-01-12T01:28:54.837Z,100319.63
2023-01-12T01:33:56.161Z,100326.84
2023-01-12T01:38:57.536Z,100322.47
2023-01-12T01:44:02.002Z,100319.16
2023-01-12T01:49:14.069Z,100317.31
2023-01-12T01:54:15.610Z,100326.59
2023-01-12T01:59:22.279Z,100305.66
2023-01-12T02:04:25.580Z,100312.53
2023-01-12T02:09:28.241Z,100314.56
2023-01-12T02:14:48.758Z,100294.31
2023-01-12T02:20:08.752Z,100300.19
2023-01-12T02:25:19.485Z,100285.78
2023-01-12T02:30:33.011Z,100267.34
2023-01-12T02:35:46.663Z,100267.50
2023-01-12T02:40:48.201Z,100263.47
2023-01-12T02:46:04.308Z,100259.94
2023-01-12T02:51:11.951Z,100259.25
2023-01-12T02:56:27.639Z,100255.53
2023-01-12T03:01:30.313Z,100266.06
2023-01-12T03:06:43.193Z,100269.75
2023-01-12T03:11:48.820Z,100258.97
2023-01-12T03:16:53.301Z,100268.84
2023-01-12T03:21:59.374Z,100266.44
2023-01-12T03:27:13.902Z,100249.81
2023-01-12T03:32:15.274Z,100240.56
2023-01-12T03:37:36.950Z,100245.56
2023-01-12T03:42:53.037Z,100241.88
2023-01-12T03:48:00.054Z,100235.97
2023-01-12T03:53:02.843Z,100240.31
2023-01-12T03:58:04.650Z,100246.91
2023-01-12T04:03:11.647Z,100245.53
2023-01-12T04:08:14.950Z,100224.31
2023-01-12T04:13:16.291Z,100222.66
2023-01-12T04:18:17.685Z,100225.84
2023-01-12T04:23:18.999Z,100216.41
2023-01-12T04:28:20.336Z,100204.81
2023-01-12T04:33:21.658Z,100198.72
2023-01-12T04:38:22.990Z,100203.72
2023-01-12T04:43:24.344Z,100202.50
2023-01-12T04:48:25.671Z,100189.75
2023-01-12T04:53:27.492Z,100190.22
2023-01-12T04:58:28.940Z,100181.25
2023-01-12T05:03:30.256Z,100175.53
2023-01-12T05:08:50.311Z,100184.25
2023-01-12T05:13:51.621Z,100156.44
2023-01-12T05:18:53.314Z,100151.06
2023-01-12T05:23:54.815Z,100146.50
2023-01-12T05:28:56.154Z,100138.44
2023-01-12T05:33:57.544Z,100135.19
2023-01-12T05:38:59.607Z,100126.69
2023-01-12T05:44:00.973Z,100118.06
2023-01-12T05:49:02.431Z,100110.06
2023-01-12T05:54:03.903Z,100114.16
2023-01-12T05:59:05.351Z,100114.81
2023-01-12T06:04:06.751Z,100107.94
2023-01-12T06:09:08.261Z,100095.16
2023-01-12T06:14:10.268Z,100088.81
2023-01-12T06:19:12.983Z,100081.69
2023-01-12T06:24:14.713Z,100073.75
2023-01-12T06:29:16.034Z,100078.50
2023-01-12T06:34:17.439Z,100076.19
2023-01-12T06:39:18.885Z,100066.72
2023-01-12T06:44:20.212Z,100077.00
2023-01-12T06:49:21.515Z,100058.44
2023-01-12T06:54:22.917Z,100035.38
2023-01-12T06:59:24.265Z,100042.09
2023-01-12T07:04:25.756Z,100040.09
2023-01-12T07:09:27.135Z,100045.66
2023-01-12T07:14:28.541Z,100045.81
2023-01-12T07:19:29.923Z,100041.63
2023-01-12T07:24:31.269Z,100028.38
2023-01-12T07:29:32.617Z,100025.53
2023-01-12T07:34:33.967Z,100023.34
2023-01-12T07:39:35.293Z,100006.91
2023-01-12T07:44:36.704Z,100003.38
2023-01-12T07:49:38.042Z,100005.56
2023-01-12T07:54:39.674Z,99998.22
2023-01-12T07:59:41.023Z,100020.88
2023-01-12T08:04:46.400Z,100017.31
2023-01-12T08:09:47.766Z,100015.97
2023-01-12T08:14:49.079Z,100029.06
2023-01-12T08:20:03.754Z,100038.13
2023-01-12T08:25:10.342Z,100033.41
2023-01-12T08:30:15.615Z,100035.25
2023-01-12T08:35:20.477Z,100031.72
2023-01-12T08:40:22.620Z,100024.38
2023-01-12T08:45:23.950Z,100020.22
2023-01-12T08:50:25.409Z,100029.56
2023-01-12T08:55:26.736Z,100032.91
2023-01-12T09:00:28.940Z,100042.28
2023-01-12T09:05:30.294Z,100036.41
2023-01-12T09:10:31.734Z,100050.97
2023-01-12T09:15:33.071Z,100037.41
2023-01-12T09:20:34.518Z,100041.75
2023-01-12T09:25:35.862Z,100046.44
2023-01-12T09:30:37.207Z,100042.41
2023-01-12T09:35:38.936Z,100040.03
2023-01-12T09:40:44.397Z,100038.34
2023-01-12T09:46:04.276Z,100040.69
2023-01-12T09:51:16.548Z,100035.16
2023-01-12T09:56:42.580Z,100050.41
2023-01-12T10:01:44.099Z,100046.88
2023-01-12T10:06:45.586Z,100032.94
2023-01-12T10:12:14.907Z,100050.22
2023-01-12T10:17:50.314Z,100040.09
2023-01-12T10:22:56.395Z,100039.44
2023-01-12T10:27:59.831Z,100038.75
2023-01-12T10:33:15.311Z,100048.00
2023-01-12T10:38:26.675Z,100041.78
2023-01-12T10:43:31.864Z,100046.09
2023-01-12T10:48:33.363Z,100037.50
2023-01-12T10:53:42.472Z,100036.31
2023-01-12T10:58:47.935Z,100024.94
2023-01-12T11:03:49.550Z,100028.63
2023-01-12T11:08:50.968Z,100035.59
2023-01-12T11:13:55.389Z,100027.91
2023-01-12T11:19:12.472Z,100025.41
2023-01-12T11:24:35.298Z,100026.88
2023-01-12T11:29:54.408Z,100017.59
2023-01-12T11:35:25.065Z,100025.66
2023-01-12T11:40:34.577Z,100029.50
2023-01-12T11:45:50.633Z,100007.59
2023-01-12T11:50:53.660Z,100003.69
2023-01-12T11:56:17.449Z,100004.84
2023-01-12T12:01:28.686Z,99989.00
2023-01-12T12:06:38.002Z,99985.50
2023-01-12T12:11:50.774Z,99968.00
2023-01-12T12:17:21.207Z,99966.53
2023-01-12T12:22:36.886Z,99947.59
2023-01-12T12:28:04.234Z,99957.50
2023-01-12T12:33:34.869Z,99954.66
2023-01-12T12:39:06.653Z,99959.19
2023-01-12T12:45:02.903Z,99952.44
2023-01-12T12:50:13.062Z,99955.41
2023-01-12T12:55:14.794Z,99947.34
2023-01-12T13:00:42.315Z,99944.66
2023-01-12T13:05:46.454Z,99941.47
2023-01-12T13:10:50.794Z,99942.75
2023-01-12T13:16:15.152Z,99934.69
2023-01-12T13:21:42.319Z,99945.44
2023-01-12T13:26:45.195Z,99945.28
2023-01-12T13:31:46.549Z,99945.28
2023-01-12T13:37:10.332Z,99942.69
2023-01-12T13:42:39.316Z,99936.75
2023-01-12T13:47:43.778Z,99940.28
2023-01-12T13:52:57.028Z,99920.84
2023-01-12T13:58:01.272Z,99927.22
2023-01-12T14:03:04.583Z,99925.66
2023-01-12T14:08:24.622Z,99945.94
2023-01-12T14:13:44.127Z,99945.44
2023-01-12T14:18:48.532Z,99945.28
2023-01-12T14:23:49.951Z,99942.88
2023-01-12T14:28:52.941Z,99940.56
2023-01-12T14:33:56.914Z,99929.94
2023-01-12T14:38:59.610Z,99927.41
2023-01-12T14:44:21.033Z,99927.41
2023-01-12T14:49:31.650Z,99933.63
2023-01-12T14:54:34.106Z,99929.72
2023-01-12T14:59:43.521Z,99931.03
2023-01-12T15:05:05.531Z,99926.97
2023-01-12T15:10:09.566Z,99927.66
2023-01-12T15:15:23.127Z,99922.72
2023-01-12T15:20:45.962Z,99922.53
2023-01-12T15:25:47.450Z,99917.44
2023-01-12T15:30:48.852Z,99921.78
2023-01-12T15:35:50.234Z,99933.47
2023-01-12T15:40:51.549Z,99927.69
2023-01-12T15:45:54.516Z,99918.91
2023-01-12T15:50:56.651Z,99925.13
2023-01-12T15:55:57.966Z,99928.47
2023-01-12T16:00:59.448Z,99924.38
2023-01-12T16:06:00.861Z,99933.72
2023-01-12T16:11:09.456Z,99914.91
2023-01-12T16:16:16.010Z,99921.97
2023-01-12T16:21:19.456Z,99914.59
2023-01-12T16:26:21.033Z,99923.13
2023-01-12T16:31:22.400Z,99914.88
2023-01-12T16:36:23.730Z,99908.66
2023-01-12T16:41:25.089Z,99912.25
2023-01-12T16:46:26.416Z,99909.19
2023-01-12T16:51:27.765Z,99898.63
2023-01-12T16:56:29.370Z,99893.44
2023-01-12T17:01:30.925Z,99890.56
2023-01-12T17:06:32.582Z,99875.91
2023-01-12T17:11:35.160Z,99880.69
2023-01-12T17:16:36.666Z,99876.81
2023-01-12T17:21:38.249Z,99881.72
2023-01-12T17:26:40.610Z,99888.56
2023-01-12T17:31:42.098Z,99885.88
2023-01-12T17:36:43.629Z,99889.16
2023-01-12T17:42:03.773Z,99883.97
2023-01-12T17:47:05.165Z,99899.91
2023-01-12T17:52:06.729Z,99896.19
2023-01-12T17:57:08.416Z,99904.47
2023-01-12T18:02:11.393Z,99904.78
2023-01-12T18:07:12.811Z,99895.03
2023-01-12T18:12:16.256Z,99897.44
2023-01-12T18:17:17.985Z,99900.97
2023-01-12T18:22:19.383Z,99907.75
2023-01-12T18:27:20.808Z,99904.50
2023-01-12T18:32:22.132Z,99895.44
2023-01-12T18:37:23.488Z,99903.84
2023-01-12T18:42:43.484Z,99894.31
2023-01-12T18:48:03.669Z,99898.66
2023-01-12T18:53:25.027Z,99894.38
2023-01-12T18:58:29.308Z,99872.81
2023-01-12T19:03:30.850Z,99874.47
2023-01-12T19:08:50.729Z,99871.13
2023-01-12T19:14:10.960Z,99864.63
2023-01-12T19:19:12.813Z,99869.34
2023-01-12T19:24:32.851Z,99864.63
2023-01-12T19:29:35.394Z,99859.38
2023-01-12T19:34:36.755Z,99856.09
2023-01-12T19:40:00.460Z,99845.16
2023-01-12T19:45:06.133Z,99848.94
2023-01-12T19:50:09.519Z,99848.94
2023-01-12T19:55:13.987Z,99837.78
2023-01-12T20:00:16.184Z,99822.09
2023-01-12T20:05:22.537Z,99819.47
2023-01-12T20:10:24.125Z,99817.69
2023-01-12T20:15:25.659Z,99813.97
2023-01-12T20:20:27.811Z,99803.84
2023-01-12T20:25:29.321Z,99803.84
2023-01-12T20:30:38.826Z,99791.69
2023-01-12T20:35:46.405Z,99804.16
2023-01-12T20:40:47.792Z,99806.22
2023-01-12T20:45:50.063Z,99800.16
2023-01-12T20:50:52.106Z,99801.50
2023-01-12T20:55:53.534Z,99801.72
2023-01-12T21:00:55.079Z,99788.19
2023-01-12T21:05:56.684Z,99794.06
2023-01-12T21:10:58.472Z,99787.50
2023-01-12T21:16:01.456Z,99774.84
2023-01-12T21:21:03.051Z,99776.03
2023-01-12T21:26:07.875Z,99774.00
2023-01-12T21:31:11.847Z,99769.19
2023-01-12T21:36:13.766Z,99768.72
2023-01-12T21:41:15.158Z,99755.94
2023-01-12T21:46:17.622Z,99749.97
2023-01-12T21:51:19.015Z,99738.34
2023-01-12T21:56:20.383Z,99740.00
2023-01-12T22:01:21.968Z,99731.56
2023-01-12T22:06:23.375Z,99730.53
2023-01-12T22:11:24.880Z,99721.47
2023-01-12T22:16:26.511Z,99716.47
2023-01-12T22:21:27.932Z,99718.50
2023-01-12T22:26:30.404Z,99716.28
2023-01-12T22:31:31.964Z,99708.22
2023-01-12T22:36:40.815Z,99711.94
2023-01-12T22:41:42.203Z,99717.09
2023-01-12T22:46:43.505Z,99720.25
2023-01-12T22:51:44.861Z,99714.88
2023-01-12T22:56:46.273Z,99713.28
2023-01-12T23:01:47.955Z,99715.31
2023-01-12T23:06:49.422Z,99700.25
2023-01-12T23:11:50.910Z,99708.31
2023-01-12T23:16:52.402Z,99703.94
2023-01-12T23:21:54.440Z,99697.56
2023-01-12T23:26:56.075Z,99697.16
2023-01-12T23:31:57.569Z,99697.97
2023-01-12T23:36:59.096Z,99691.63
2023-01-12T23:42:00.634Z,99688.72
2023-01-12T23:47:04.350Z,99671.56
2023-01-12T23:52:05.813Z,99675.91
2023-01-12T23:57:07.344Z,99665.63
